Capitol Logistics 7411

Operating for MZN



KAFW
Fort Worth Alliance Airport
Fort Worth, Texas
KSEA
Seattle-Tacoma International Airport
Seattle, Washington

Activity Log

Date Flight Route Aircraft Duration
03/25/2021 CPX286 SWABR5 HUDAD PNH ALS JNC TCH TWF BKE PDT CHINS3 B763 3h 54m
04/14/2020 CPX286 SWABR5 HUDAD PNH ALS JNC TCH TWF BKE PDT CHINS3 B763 4h 19m

Route Details

Aircraft Information
Primary: Boeing 767-300BDSF
Backup: Boeing 757-200SF
Route Data
Distance: 1428nm
Duration: 3h 39m
Recm'd Route: SWABR7 HUDAD PNH J17 PUB EKR OCS PIH PDT CHINS4
Origin Wx: KAFW 141953Z 04012KT 10SM SCT026 BKN100 BKN250 21/13 A3002 RMK AO2 SLP157 T02060128 $
Dest. Wx: KSEA 141953Z 35012G15KT 10SM CLR 17/01 A3015 RMK AO2 SLP218 T01670011
Notes: